createdAt,value
2023-01-20T00:01:47.550Z,96392.00
2023-01-20T00:06:48.443Z,96396.00
2023-01-20T00:11:49.325Z,96402.00
2023-01-20T00:16:50.320Z,96408.00
2023-01-20T00:21:51.100Z,96409.00
2023-01-20T00:26:51.851Z,96401.00
2023-01-20T00:31:52.617Z,96407.00
2023-01-20T00:36:53.357Z,96403.00
2023-01-20T00:41:54.201Z,96410.00
2023-01-20T00:46:55.014Z,96418.00
2023-01-20T00:51:55.803Z,96421.00
2023-01-20T00:56:56.769Z,96420.00
2023-01-20T01:01:57.809Z,96430.00
2023-01-20T01:06:58.606Z,96429.00
2023-01-20T01:11:59.678Z,96439.00
2023-01-20T01:17:00.426Z,96433.00
2023-01-20T01:22:01.600Z,96444.00
2023-01-20T01:27:03.905Z,96451.00
2023-01-20T01:32:05.492Z,96459.00
2023-01-20T01:37:06.283Z,96462.00
2023-01-20T01:42:15.664Z,96469.00
2023-01-20T01:47:16.477Z,96475.00
2023-01-20T01:52:17.916Z,96476.00
2023-01-20T01:57:19.006Z,96481.00
2023-01-20T02:02:24.087Z,96478.00
2023-01-20T02:07:26.092Z,96482.00
2023-01-20T02:12:28.818Z,96496.00
2023-01-20T02:17:39.627Z,96493.00
2023-01-20T02:26:02.134Z,96495.00
2023-01-20T02:31:40.016Z,96503.00
2023-01-20T02:36:46.166Z,96497.00
2023-01-20T02:43:30.766Z,96505.00
2023-01-20T02:48:46.618Z,96508.00
2023-01-20T02:53:51.395Z,96515.00
2023-01-20T02:58:58.262Z,96505.00
2023-01-20T03:04:01.882Z,96514.00
2023-01-20T03:09:08.356Z,96520.00
2023-01-20T03:14:13.288Z,96532.00
2023-01-20T03:19:16.597Z,96521.00
2023-01-20T03:24:17.457Z,96542.00
2023-01-20T03:29:18.229Z,96557.00
2023-01-20T03:34:21.968Z,96558.00
2023-01-20T03:39:24.317Z,96564.00
2023-01-20T03:44:56.750Z,96570.00
2023-01-20T03:50:09.547Z,96578.00
2023-01-20T03:55:20.174Z,96580.00
2023-01-20T04:00:25.169Z,96580.00
2023-01-20T04:05:27.913Z,96590.00
2023-01-20T04:10:31.381Z,96596.00
2023-01-20T04:15:36.619Z,96588.00
2023-01-20T04:20:37.817Z,96597.00
2023-01-20T04:25:38.764Z,96599.00
2023-01-20T04:30:39.565Z,96605.00
2023-01-20T04:35:40.347Z,96605.00
2023-01-20T04:40:41.116Z,96612.00
2023-01-20T04:45:41.954Z,96612.00
2023-01-20T04:50:43.094Z,96609.00
2023-01-20T04:55:44.522Z,96614.00
2023-01-20T05:00:45.392Z,96614.00
2023-01-20T05:05:55.485Z,96612.00
2023-01-20T05:10:56.401Z,96626.00
2023-01-20T05:15:57.781Z,96627.00
2023-01-20T05:20:58.886Z,96634.00
2023-01-20T05:25:59.661Z,96632.00
2023-01-20T05:31:00.511Z,96629.00
2023-01-20T05:36:05.579Z,96642.00
2023-01-20T05:41:08.161Z,96651.00
2023-01-20T05:46:08.922Z,96653.00
2023-01-20T05:51:09.852Z,96668.00
2023-01-20T05:56:15.038Z,96681.00
2023-01-20T06:01:15.892Z,96674.00
2023-01-20T06:06:17.907Z,96686.00
2023-01-20T06:11:19.884Z,96685.00
2023-01-20T06:16:21.211Z,96691.00
2023-01-20T06:21:22.726Z,96709.00
2023-01-20T06:26:23.727Z,96712.00
2023-01-20T06:31:24.689Z,96715.00
2023-01-20T06:36:25.647Z,96719.00
2023-01-20T06:41:26.955Z,96720.00
2023-01-20T06:46:27.744Z,96715.00
2023-01-20T06:51:30.644Z,96714.00
2023-01-20T06:56:31.362Z,96714.00
2023-01-20T07:01:32.442Z,96727.00
2023-01-20T07:06:39.169Z,96728.00
2023-01-20T07:11:40.240Z,96731.00
2023-01-20T07:16:41.078Z,96732.00
2023-01-20T07:21:41.982Z,96743.00
2023-01-20T07:26:42.778Z,96748.00
2023-01-20T07:31:43.667Z,96760.00
2023-01-20T07:36:44.471Z,96768.00
2023-01-20T07:41:49.361Z,96778.00
2023-01-20T07:46:50.877Z,96786.00
2023-01-20T07:51:51.927Z,96789.00
2023-01-20T07:56:52.629Z,96802.00
2023-01-20T08:01:53.536Z,96810.00
2023-01-20T08:06:54.281Z,96803.00
2023-01-20T08:11:55.127Z,96816.00
2023-01-20T08:16:55.922Z,96824.00
2023-01-20T08:21:56.876Z,96831.00
2023-01-20T08:26:58.350Z,96832.00
2023-01-20T08:32:00.817Z,96837.00
2023-01-20T08:37:01.558Z,96845.00
2023-01-20T08:42:02.408Z,96845.00
2023-01-20T08:47:03.169Z,96849.00
2023-01-20T08:52:04.077Z,96860.00
2023-01-20T08:57:04.859Z,96859.00
2023-01-20T09:02:06.169Z,96866.00
2023-01-20T09:07:11.326Z,96872.00
2023-01-20T09:12:14.349Z,96879.00
2023-01-20T09:17:15.124Z,96885.00
2023-01-20T09:22:16.708Z,96876.00
2023-01-20T09:27:17.614Z,96881.00
2023-01-20T09:32:18.396Z,96881.00
2023-01-20T09:37:37.996Z,96876.00
2023-01-20T09:45:05.595Z,96880.00
2023-01-20T09:51:02.030Z,96889.00
2023-01-20T09:56:15.683Z,96895.00
2023-01-20T10:02:01.330Z,96904.00
2023-01-20T10:07:29.692Z,96904.00
2023-01-20T10:12:41.652Z,96901.00
2023-01-20T10:18:04.809Z,96896.00
2023-01-20T10:23:33.370Z,96894.00
2023-01-20T10:28:39.887Z,96895.00
2023-01-20T10:33:44.213Z,96895.00
2023-01-20T10:39:05.149Z,96892.00
2023-01-20T10:44:11.539Z,96892.00
2023-01-20T10:53:03.341Z,96891.00
2023-01-20T10:59:59.984Z,96882.00
2023-01-20T11:05:17.351Z,96879.00
2023-01-20T11:10:23.628Z,96880.00
2023-01-20T11:15:37.237Z,96884.00
2023-01-20T11:20:41.553Z,96885.00
2023-01-20T11:25:42.595Z,96879.00
2023-01-20T11:30:51.048Z,96887.00
2023-01-20T11:36:26.827Z,96885.00
2023-01-20T11:41:30.327Z,96888.00
2023-01-20T11:46:34.351Z,96879.00
2023-01-20T11:51:43.717Z,96885.00
2023-01-20T11:56:48.484Z,96881.00
2023-01-20T12:01:56.991Z,96880.00
2023-01-20T12:07:20.062Z,96875.00
2023-01-20T12:12:35.828Z,96884.00
2023-01-20T12:17:41.840Z,96877.00
2023-01-20T12:22:58.084Z,96890.00
2023-01-20T12:28:09.214Z,96893.00
2023-01-20T12:33:25.193Z,96883.00
2023-01-20T12:38:29.590Z,96889.00
2023-01-20T12:43:56.273Z,96891.00
2023-01-20T12:49:24.309Z,96905.00
2023-01-20T12:57:15.025Z,96905.00
2023-01-20T13:02:36.962Z,96904.00
2023-01-20T13:08:22.466Z,96911.00
2023-01-20T13:13:56.389Z,96900.00
2023-01-20T13:19:28.261Z,96905.00
2023-01-20T13:24:29.766Z,96917.00
2023-01-20T13:29:43.091Z,96911.00
2023-01-20T13:34:43.913Z,96910.00
2023-01-20T13:39:46.134Z,96907.00
2023-01-20T13:45:16.395Z,96904.00
2023-01-20T13:50:29.716Z,96915.00
2023-01-20T13:55:48.865Z,96907.00
2023-01-20T14:01:04.986Z,96915.00
2023-01-20T14:06:19.747Z,96921.00
2023-01-20T14:11:23.289Z,96924.00
2023-01-20T14:16:30.558Z,96928.00
2023-01-20T14:21:40.903Z,96925.00
2023-01-20T14:26:41.782Z,96924.00
2023-01-20T14:31:45.518Z,96922.00
2023-01-20T14:36:47.656Z,96927.00
2023-01-20T14:41:57.336Z,96934.00
2023-01-20T14:47:01.045Z,96937.00
2023-01-20T14:52:03.651Z,96941.00
2023-01-20T14:57:42.728Z,96948.00
2023-01-20T15:03:30.329Z,96962.00
2023-01-20T15:08:56.861Z,96967.00
2023-01-20T15:14:08.214Z,96972.00
2023-01-20T15:19:29.796Z,96969.00
2023-01-20T15:24:36.493Z,96983.00
2023-01-20T15:29:37.404Z,96990.00
2023-01-20T15:34:38.241Z,96986.00
2023-01-20T15:39:38.992Z,96997.00
2023-01-20T15:44:40.139Z,96988.00
2023-01-20T15:49:40.976Z,96986.00
2023-01-20T15:54:41.741Z,96988.00
2023-01-20T15:59:45.700Z,96993.00
2023-01-20T16:04:46.811Z,96998.00
2023-01-20T16:09:47.949Z,97000.00
2023-01-20T16:14:48.687Z,96991.00
2023-01-20T16:19:49.795Z,96995.00
2023-01-20T16:24:50.787Z,96999.00
2023-01-20T16:29:52.340Z,97001.00
2023-01-20T16:34:53.110Z,97004.00
2023-01-20T16:39:53.940Z,97011.00
2023-01-20T16:44:54.675Z,97017.00
2023-01-20T16:49:55.643Z,97014.00
2023-01-20T16:54:56.362Z,97019.00
2023-01-20T16:59:57.189Z,97022.00
2023-01-20T17:04:57.897Z,97022.00
2023-01-20T17:09:58.757Z,97026.00
2023-01-20T17:14:59.470Z,97025.00
2023-01-20T17:20:00.943Z,97029.00
2023-01-20T17:25:02.456Z,97036.00
2023-01-20T17:30:06.910Z,97036.00
2023-01-20T17:40:19.367Z,97040.00
2023-01-20T17:45:20.333Z,97047.00
2023-01-20T17:50:21.344Z,97047.00
2023-01-20T17:55:22.129Z,97045.00
2023-01-20T18:00:23.360Z,97047.00
2023-01-20T18:05:24.082Z,97059.00
2023-01-20T18:10:24.959Z,97054.00
2023-01-20T18:15:25.686Z,97063.00
2023-01-20T18:20:26.936Z,97061.00
2023-01-20T18:25:29.290Z,97073.00
2023-01-20T18:30:30.051Z,97070.00
2023-01-20T18:35:30.992Z,97065.00
2023-01-20T18:40:31.843Z,97069.00
2023-01-20T18:45:32.590Z,97070.00
2023-01-20T18:50:34.187Z,97079.00
2023-01-20T18:55:35.206Z,97077.00
2023-01-20T19:00:36.101Z,97074.00
2023-01-20T19:05:36.855Z,97082.00
2023-01-20T19:10:37.623Z,97087.00
2023-01-20T19:15:38.551Z,97089.00
2023-01-20T19:20:39.908Z,97079.00
2023-01-20T19:25:40.630Z,97088.00
2023-01-20T19:30:41.595Z,97090.00
2023-01-20T19:35:42.552Z,97097.00
2023-01-20T19:40:46.476Z,97096.00
2023-01-20T19:45:47.218Z,97102.00
2023-01-20T19:50:48.215Z,97102.00
2023-01-20T19:55:48.969Z,97107.00
2023-01-20T20:00:49.759Z,97115.00
2023-01-20T20:05:50.904Z,97115.00
2023-01-20T20:10:51.718Z,97112.00
2023-01-20T20:16:00.328Z,97122.00
2023-01-20T20:21:01.535Z,97126.00
2023-01-20T20:26:02.318Z,97133.00
2023-01-20T20:31:05.530Z,97134.00
2023-01-20T20:36:08.069Z,97141.00
2023-01-20T20:41:09.170Z,97145.00
2023-01-20T20:46:12.793Z,97147.00
2023-01-20T20:51:16.224Z,97153.00
2023-01-20T20:56:17.348Z,97157.00
2023-01-20T21:01:18.305Z,97160.00
2023-01-20T21:06:21.728Z,97153.00
2023-01-20T21:11:24.205Z,97167.00
2023-01-20T21:16:26.806Z,97169.00
2023-01-20T21:21:31.196Z,97160.00
2023-01-20T21:26:31.945Z,97170.00
2023-01-20T21:31:33.912Z,97171.00
2023-01-20T21:36:40.649Z,97177.00
2023-01-20T21:41:42.185Z,97184.00
2023-01-20T21:46:43.035Z,97183.00
2023-01-20T21:52:02.124Z,97196.00
2023-01-20T21:57:03.889Z,97198.00
2023-01-20T22:02:05.117Z,97206.00
2023-01-20T22:07:06.276Z,97209.00
2023-01-20T22:12:07.406Z,97214.00
2023-01-20T22:17:09.924Z,97222.00
2023-01-20T22:22:10.742Z,97220.00
2023-01-20T22:27:11.621Z,97233.00
2023-01-20T22:32:12.379Z,97236.00
2023-01-20T22:37:13.142Z,97242.00
2023-01-20T22:42:13.874Z,97247.00
2023-01-20T22:47:14.642Z,97257.00
2023-01-20T22:52:15.456Z,97267.00
2023-01-20T22:57:16.511Z,97271.00
2023-01-20T23:02:17.259Z,97271.00
2023-01-20T23:07:18.050Z,97276.00
2023-01-20T23:12:18.784Z,97286.00
2023-01-20T23:17:19.548Z,97287.00
2023-01-20T23:22:20.690Z,97282.00
2023-01-20T23:27:21.544Z,97293.00
2023-01-20T23:32:22.265Z,97298.00
2023-01-20T23:37:23.121Z,97293.00
2023-01-20T23:42:23.834Z,97300.00
2023-01-20T23:47:24.623Z,97310.00
2023-01-20T23:52:25.465Z,97311.00
2023-01-20T23:57:26.697Z,97314.00
